createdAt,value
2022-11-07T00:02:13.627Z,10.90
2022-11-07T00:04:42.569Z,10.90
2022-11-07T00:07:12.699Z,10.90
2022-11-07T00:09:40.966Z,10.90
2022-11-07T00:12:09.606Z,10.90
2022-11-07T00:14:37.843Z,10.90
2022-11-07T00:17:06.047Z,11.00
2022-11-07T00:19:34.254Z,11.00
2022-11-07T00:22:02.504Z,11.00
2022-11-07T00:24:32.158Z,11.00
2022-11-07T00:27:00.636Z,11.00
2022-11-07T00:29:29.035Z,11.00
2022-11-07T00:31:57.277Z,11.00
2022-11-07T00:34:25.525Z,11.00
2022-11-07T00:36:53.774Z,11.00
2022-11-07T00:39:21.988Z,11.00
2022-11-07T00:41:51.577Z,11.00
2022-11-07T00:44:19.830Z,10.90
2022-11-07T00:46:48.131Z,10.90
2022-11-07T00:49:16.356Z,10.90
2022-11-07T00:51:44.616Z,10.90
2022-11-07T00:54:12.894Z,10.90
2022-11-07T00:56:41.086Z,10.90
2022-11-07T00:59:10.709Z,10.90
2022-11-07T01:01:39.151Z,10.80
2022-11-07T01:04:24.729Z,10.80
2022-11-07T01:06:53.082Z,10.80
2022-11-07T01:09:22.913Z,10.80
2022-11-07T01:11:51.290Z,10.80
2022-11-07T01:14:23.244Z,10.80
2022-11-07T01:16:51.938Z,10.80
2022-11-07T01:19:20.979Z,10.70
2022-11-07T01:21:49.330Z,10.70
2022-11-07T01:24:18.276Z,10.70
2022-11-07T01:26:48.909Z,10.60
2022-11-07T01:29:17.995Z,10.70
2022-11-07T01:31:48.317Z,10.60
2022-11-07T01:34:17.788Z,10.60
2022-11-07T01:36:46.463Z,10.60
2022-11-07T01:39:14.817Z,10.60
2022-11-07T01:41:43.312Z,10.60
2022-11-07T01:44:55.609Z,10.60
2022-11-07T01:47:29.739Z,10.60
2022-11-07T01:49:58.381Z,10.60
2022-11-07T01:52:30.540Z,10.60
2022-11-07T01:55:05.567Z,10.50
2022-11-07T01:57:40.900Z,10.50
2022-11-07T02:00:14.959Z,10.50
2022-11-07T02:02:47.033Z,10.50
2022-11-07T02:05:20.669Z,10.60
2022-11-07T02:07:49.106Z,10.50
2022-11-07T02:10:18.296Z,10.60
2022-11-07T02:12:46.894Z,10.60
2022-11-07T02:15:15.603Z,10.60
2022-11-07T02:17:45.228Z,10.60
2022-11-07T02:20:14.091Z,10.60
2022-11-07T02:22:49.009Z,10.60
2022-11-07T02:25:20.874Z,10.70
2022-11-07T02:27:54.926Z,10.70
2022-11-07T02:30:26.718Z,10.70
2022-11-07T02:32:54.972Z,10.80
2022-11-07T02:35:42.546Z,10.80
2022-11-07T02:38:15.307Z,10.80
2022-11-07T02:40:47.719Z,10.80
2022-11-07T02:43:17.547Z,10.70
2022-11-07T02:45:47.672Z,10.70
2022-11-07T02:48:15.997Z,10.70
2022-11-07T02:50:44.778Z,10.70
2022-11-07T02:53:13.812Z,10.70
2022-11-07T02:55:42.228Z,10.70
2022-11-07T02:58:11.831Z,10.70
2022-11-07T03:00:40.120Z,10.60
2022-11-07T03:03:08.564Z,10.70
2022-11-07T03:05:36.864Z,10.70
2022-11-07T03:08:05.740Z,10.70
2022-11-07T03:10:34.060Z,10.60
2022-11-07T03:13:03.081Z,10.60
2022-11-07T03:15:32.668Z,10.70
2022-11-07T03:18:01.119Z,10.60
2022-11-07T03:20:29.764Z,10.70
2022-11-07T03:22:58.132Z,10.70
2022-11-07T03:25:26.479Z,10.60
2022-11-07T03:27:54.708Z,10.60
2022-11-07T03:30:22.963Z,10.70
2022-11-07T03:32:54.969Z,10.70
2022-11-07T03:35:23.703Z,10.60
2022-11-07T03:37:52.245Z,10.60
2022-11-07T03:40:20.517Z,10.60
2022-11-07T03:42:48.806Z,10.70
2022-11-07T03:45:18.375Z,10.70
2022-11-07T03:47:48.074Z,10.70
2022-11-07T03:50:20.557Z,10.70
2022-11-07T03:52:49.236Z,10.70
2022-11-07T03:55:18.569Z,10.70
2022-11-07T03:57:47.754Z,10.80
2022-11-07T04:00:17.710Z,10.80
2022-11-07T04:02:46.427Z,10.80
2022-11-07T04:05:14.811Z,10.80
2022-11-07T04:07:44.471Z,10.80
2022-11-07T04:10:13.801Z,10.80
2022-11-07T04:12:59.288Z,10.80
2022-11-07T04:15:45.237Z,10.70
2022-11-07T04:18:13.476Z,10.80
2022-11-07T04:20:41.743Z,10.80
2022-11-07T04:23:11.473Z,10.80
2022-11-07T04:25:57.399Z,10.90
2022-11-07T04:28:25.663Z,10.90
2022-11-07T04:30:53.899Z,10.90
2022-11-07T04:33:22.457Z,10.90
2022-11-07T04:35:50.763Z,10.90
2022-11-07T04:38:20.876Z,10.90
2022-11-07T04:40:55.367Z,10.90
2022-11-07T04:43:23.890Z,10.90
2022-11-07T04:45:52.473Z,10.90
2022-11-07T04:48:21.553Z,10.80
2022-11-07T04:50:50.364Z,10.90
2022-11-07T04:53:20.215Z,10.80
2022-11-07T04:55:48.657Z,10.80
2022-11-07T04:58:17.002Z,10.70
2022-11-07T05:00:45.238Z,10.70
2022-11-07T05:03:13.985Z,10.70
2022-11-07T05:05:42.606Z,10.70
2022-11-07T05:08:10.874Z,10.70
2022-11-07T05:10:40.870Z,10.70
2022-11-07T05:13:09.131Z,10.70
2022-11-07T05:15:37.771Z,10.70
2022-11-07T05:18:06.295Z,10.70
2022-11-07T05:20:36.585Z,10.70
2022-11-07T05:23:17.750Z,10.70
2022-11-07T05:25:50.407Z,10.70
2022-11-07T05:28:27.992Z,10.70
2022-11-07T05:31:01.099Z,10.70
2022-11-07T05:33:30.164Z,10.80
2022-11-07T05:35:58.957Z,10.80
2022-11-07T05:38:27.210Z,10.80
2022-11-07T05:40:56.850Z,10.90
2022-11-07T05:43:25.070Z,10.90
2022-11-07T05:45:53.475Z,10.90
2022-11-07T05:48:21.719Z,11.00
2022-11-07T05:50:49.973Z,11.00
2022-11-07T05:53:20.976Z,11.00
2022-11-07T05:55:49.586Z,11.10
2022-11-07T05:58:19.986Z,11.20
2022-11-07T06:00:48.740Z,11.20
2022-11-07T06:03:18.765Z,11.20
2022-11-07T06:05:47.723Z,11.20
2022-11-07T06:08:16.419Z,11.30
2022-11-07T06:10:45.270Z,11.30
2022-11-07T06:13:16.629Z,11.30
2022-11-07T06:15:47.257Z,11.30
2022-11-07T06:18:18.842Z,11.40
2022-11-07T06:20:47.298Z,11.40
2022-11-07T06:23:16.124Z,11.40
2022-11-07T06:25:44.708Z,11.50
2022-11-07T06:28:14.498Z,11.50
2022-11-07T06:30:43.705Z,11.50
2022-11-07T06:33:17.518Z,11.50
2022-11-07T06:35:47.206Z,11.50
2022-11-07T06:38:16.567Z,11.50
2022-11-07T06:40:45.578Z,11.50
2022-11-07T06:43:16.216Z,11.50
2022-11-07T06:45:46.848Z,11.60
2022-11-07T06:48:16.779Z,11.60
2022-11-07T06:50:45.089Z,11.60
2022-11-07T06:53:15.094Z,11.50
2022-11-07T06:55:43.699Z,11.60
2022-11-07T06:58:12.010Z,11.70
2022-11-07T07:00:43.052Z,11.70
2022-11-07T07:03:11.628Z,11.60
2022-11-07T07:05:41.483Z,11.70
2022-11-07T07:08:11.979Z,11.70
2022-11-07T07:10:44.476Z,11.70
2022-11-07T07:13:14.653Z,11.80
2022-11-07T07:15:50.986Z,11.80
2022-11-07T07:18:20.031Z,11.80
2022-11-07T07:20:50.725Z,11.90
2022-11-07T07:23:21.033Z,12.00
2022-11-07T07:25:50.312Z,12.00
2022-11-07T07:28:18.915Z,12.00
2022-11-07T07:30:51.652Z,12.00
2022-11-07T07:33:20.631Z,12.10
2022-11-07T07:35:50.229Z,12.10
2022-11-07T07:38:18.454Z,12.20
2022-11-07T07:40:46.696Z,12.20
2022-11-07T07:43:15.452Z,12.20
2022-11-07T07:45:44.097Z,12.20
2022-11-07T07:48:12.322Z,12.20
2022-11-07T07:50:40.650Z,12.30
2022-11-07T07:53:10.754Z,12.30
2022-11-07T07:55:39.043Z,12.30
2022-11-07T07:58:07.335Z,12.40
2022-11-07T08:00:35.946Z,12.40
2022-11-07T08:03:05.551Z,12.40
2022-11-07T08:05:34.076Z,12.40
2022-11-07T08:08:02.371Z,12.40
2022-11-07T08:10:47.429Z,12.40
2022-11-07T08:13:15.944Z,12.50
2022-11-07T08:15:44.468Z,12.50
2022-11-07T08:18:12.743Z,12.50
2022-11-07T08:20:41.078Z,12.50
2022-11-07T08:23:16.432Z,12.50
2022-11-07T08:25:52.289Z,12.50
2022-11-07T08:28:23.084Z,12.50
2022-11-07T08:30:59.583Z,12.60
2022-11-07T08:33:28.659Z,12.70
2022-11-07T08:35:57.780Z,12.70
2022-11-07T08:38:26.151Z,12.70
2022-11-07T08:40:56.457Z,12.80
2022-11-07T08:43:25.001Z,12.80
2022-11-07T08:45:54.798Z,12.90
2022-11-07T08:48:24.588Z,12.90
2022-11-07T08:50:54.058Z,12.90
2022-11-07T08:53:22.484Z,12.90
2022-11-07T08:55:50.905Z,13.00
2022-11-07T08:58:24.727Z,13.00
2022-11-07T09:00:57.125Z,13.10
2022-11-07T09:06:13.705Z,13.20
2022-11-07T09:08:42.014Z,13.20
2022-11-07T09:11:10.428Z,13.20
2022-11-07T09:13:40.312Z,13.20
2022-11-07T09:16:09.264Z,13.20
2022-11-07T09:18:37.537Z,13.10
2022-11-07T09:21:06.337Z,13.10
2022-11-07T09:23:34.617Z,13.20
2022-11-07T09:26:03.030Z,13.10
2022-11-07T09:28:31.782Z,13.10
2022-11-07T09:31:03.876Z,13.10
2022-11-07T09:33:33.096Z,13.10
2022-11-07T09:36:01.859Z,13.10
2022-11-07T09:38:30.804Z,13.10
2022-11-07T09:41:08.069Z,13.00
2022-11-07T09:44:05.133Z,13.00
2022-11-07T09:46:57.284Z,13.00
2022-11-07T09:49:31.878Z,13.00
2022-11-07T09:52:07.747Z,13.00
2022-11-07T09:54:42.079Z,13.10
2022-11-07T09:57:16.100Z,13.10
2022-11-07T09:59:50.238Z,13.10
2022-11-07T10:02:23.221Z,13.10
2022-11-07T10:04:58.038Z,13.10
2022-11-07T10:07:40.354Z,13.10
2022-11-07T10:10:19.582Z,13.10
2022-11-07T10:13:23.553Z,13.10
2022-11-07T10:16:06.078Z,13.20
2022-11-07T10:18:49.767Z,13.20
2022-11-07T10:21:42.269Z,13.20
2022-11-07T10:24:35.317Z,13.30
2022-11-07T10:27:04.220Z,13.30
2022-11-07T10:29:45.012Z,13.30
2022-11-07T10:32:24.122Z,13.30
2022-11-07T10:35:02.665Z,13.40
2022-11-07T10:37:31.533Z,13.40
2022-11-07T10:39:59.746Z,13.50
2022-11-07T10:42:32.539Z,13.60
2022-11-07T10:45:01.207Z,13.70
2022-11-07T10:47:29.543Z,13.70
2022-11-07T10:50:02.680Z,13.70
2022-11-07T10:52:31.415Z,13.80
2022-11-07T10:55:15.575Z,13.90
2022-11-07T10:57:44.539Z,13.90
2022-11-07T11:00:26.104Z,13.90
2022-11-07T11:02:56.688Z,13.90
2022-11-07T11:05:29.514Z,14.00
2022-11-07T11:08:08.596Z,14.00
2022-11-07T11:10:40.733Z,14.10
2022-11-07T11:13:28.396Z,14.10
2022-11-07T11:16:04.294Z,14.20
2022-11-07T11:18:34.607Z,14.20
2022-11-07T11:21:06.780Z,14.30
2022-11-07T11:23:39.074Z,14.40
2022-11-07T11:26:14.491Z,14.50
2022-11-07T11:28:47.258Z,14.60
2022-11-07T11:31:25.637Z,14.60
2022-11-07T11:34:00.279Z,14.70
2022-11-07T11:36:36.375Z,14.80
2022-11-07T11:39:07.368Z,14.80
2022-11-07T11:41:41.308Z,14.90
2022-11-07T11:44:19.769Z,14.80
2022-11-07T11:46:54.510Z,14.80
2022-11-07T11:49:29.529Z,14.80
2022-11-07T11:52:05.341Z,14.70
2022-11-07T11:54:34.827Z,14.70
2022-11-07T11:57:08.392Z,14.70
2022-11-07T12:00:00.941Z,14.80
2022-11-07T12:02:51.401Z,14.90
2022-11-07T12:05:34.281Z,14.90
2022-11-07T12:08:21.672Z,14.90
2022-11-07T12:10:58.666Z,14.90
2022-11-07T12:13:38.938Z,14.90
2022-11-07T12:16:19.606Z,14.90
2022-11-07T12:18:57.651Z,14.90
2022-11-07T12:21:33.166Z,15.10
2022-11-07T12:24:17.487Z,15.00
2022-11-07T12:26:57.723Z,15.00
2022-11-07T12:29:36.296Z,15.00
2022-11-07T12:32:16.636Z,15.00
2022-11-07T12:35:12.594Z,14.90
2022-11-07T12:38:02.870Z,14.90
2022-11-07T12:40:46.860Z,14.80
2022-11-07T12:43:30.644Z,14.80
2022-11-07T12:46:07.807Z,14.70
2022-11-07T12:49:15.756Z,14.70
2022-11-07T12:51:56.669Z,14.70
2022-11-07T12:54:45.762Z,14.70
2022-11-07T12:57:20.158Z,14.70
2022-11-07T12:59:55.168Z,14.60
2022-11-07T13:02:45.570Z,14.60
2022-11-07T13:05:35.340Z,14.60
2022-11-07T13:08:10.268Z,14.60
2022-11-07T13:10:50.171Z,14.70
2022-11-07T13:13:28.207Z,14.60
2022-11-07T13:18:44.903Z,14.60
2022-11-07T13:21:13.298Z,14.60
2022-11-07T13:23:41.579Z,14.70
2022-11-07T13:26:26.226Z,14.70
2022-11-07T13:29:01.604Z,14.70
2022-11-07T13:31:36.685Z,14.70
2022-11-07T13:34:27.044Z,14.80
2022-11-07T13:37:02.998Z,14.80
2022-11-07T13:39:32.112Z,14.80
2022-11-07T13:42:01.398Z,14.90
2022-11-07T13:44:36.681Z,14.90
2022-11-07T13:47:10.979Z,14.90
2022-11-07T13:49:44.772Z,14.90
2022-11-07T13:52:23.730Z,14.90
2022-11-07T13:54:58.136Z,14.90
2022-11-07T13:57:32.640Z,14.90
2022-11-07T14:00:14.815Z,14.90
2022-11-07T14:02:53.499Z,14.90
2022-11-07T14:05:27.142Z,14.80
2022-11-07T14:08:01.127Z,14.80
2022-11-07T14:10:34.050Z,14.80
2022-11-07T14:13:07.655Z,14.80
2022-11-07T14:15:44.980Z,14.80
2022-11-07T14:18:16.063Z,14.80
2022-11-07T14:20:48.641Z,14.80
2022-11-07T14:23:18.256Z,14.90
2022-11-07T14:25:57.102Z,14.90
2022-11-07T14:28:25.930Z,15.00
2022-11-07T14:30:55.579Z,15.00
2022-11-07T14:33:24.423Z,15.00
2022-11-07T14:35:53.533Z,15.00
2022-11-07T14:38:25.486Z,15.00
2022-11-07T14:40:56.087Z,15.00
2022-11-07T14:43:26.809Z,15.00
2022-11-07T14:46:12.876Z,15.00
2022-11-07T14:48:44.017Z,15.00
2022-11-07T14:51:15.748Z,15.00
2022-11-07T14:53:53.737Z,14.90
2022-11-07T14:56:29.389Z,15.00
2022-11-07T14:59:00.908Z,14.90
2022-11-07T15:01:34.308Z,14.80
2022-11-07T15:04:15.541Z,14.90
2022-11-07T15:06:46.065Z,14.90
2022-11-07T15:09:14.322Z,14.90
2022-11-07T15:11:54.589Z,14.80
2022-11-07T15:14:25.739Z,14.90
2022-11-07T15:16:55.854Z,14.90
2022-11-07T15:19:25.527Z,14.90
2022-11-07T15:21:56.911Z,14.90
2022-11-07T15:24:44.253Z,14.90
2022-11-07T15:27:22.508Z,14.80
2022-11-07T15:29:54.150Z,14.80
2022-11-07T15:32:26.492Z,14.80
2022-11-07T15:35:30.134Z,14.80
2022-11-07T15:37:54.256Z,14.80
2022-11-07T15:40:24.125Z,14.80
2022-11-07T15:42:52.511Z,14.70
2022-11-07T15:45:21.817Z,14.70
2022-11-07T15:47:52.105Z,14.70
2022-11-07T15:50:22.498Z,14.70
2022-11-07T15:52:52.672Z,14.70
2022-11-07T15:55:23.201Z,14.70
2022-11-07T15:57:54.488Z,14.70
2022-11-07T16:00:25.340Z,14.70
2022-11-07T16:02:55.186Z,14.70
2022-11-07T16:05:23.646Z,14.60
2022-11-07T16:07:51.955Z,14.60
2022-11-07T16:10:23.535Z,14.60
2022-11-07T16:12:52.212Z,14.60
2022-11-07T16:15:23.675Z,14.60
2022-11-07T16:17:52.292Z,14.50
2022-11-07T16:20:24.200Z,14.50
2022-11-07T16:22:53.038Z,14.50
2022-11-07T16:25:25.828Z,14.50
2022-11-07T16:27:59.060Z,14.50
2022-11-07T16:30:27.909Z,14.50
2022-11-07T16:32:56.589Z,14.50
2022-11-07T16:35:26.273Z,14.50
2022-11-07T16:37:54.705Z,14.50
2022-11-07T16:40:23.087Z,14.50
2022-11-07T16:42:51.556Z,14.50
2022-11-07T16:45:22.325Z,14.50
2022-11-07T16:47:50.563Z,14.40
2022-11-07T16:50:18.972Z,14.50
2022-11-07T16:52:48.636Z,14.40
2022-11-07T16:55:18.337Z,14.40
2022-11-07T16:57:47.851Z,14.40
2022-11-07T17:00:22.075Z,14.40
2022-11-07T17:02:51.053Z,14.40
2022-11-07T17:05:19.623Z,14.40
2022-11-07T17:07:50.627Z,14.30
2022-11-07T17:10:21.575Z,14.40
2022-11-07T17:12:49.893Z,14.40
2022-11-07T17:15:18.312Z,14.30
2022-11-07T17:17:47.157Z,14.30
2022-11-07T17:20:49.462Z,14.30
2022-11-07T17:23:12.665Z,14.30
2022-11-07T17:25:41.645Z,14.30
2022-11-07T17:28:10.752Z,14.30
2022-11-07T17:30:38.956Z,14.30
2022-11-07T17:33:07.222Z,14.30
2022-11-07T17:35:36.098Z,14.30
2022-11-07T17:38:04.941Z,14.30
2022-11-07T17:40:35.840Z,14.30
2022-11-07T17:43:04.406Z,14.20
2022-11-07T17:45:32.743Z,14.20
2022-11-07T17:48:01.031Z,14.20
2022-11-07T17:50:29.520Z,14.20
2022-11-07T17:52:57.793Z,14.20
2022-11-07T17:55:26.069Z,14.30
2022-11-07T17:57:56.072Z,14.20
2022-11-07T18:00:27.144Z,14.30
2022-11-07T18:02:55.421Z,14.20
2022-11-07T18:05:31.854Z,14.20
2022-11-07T18:08:01.714Z,14.20
2022-11-07T18:10:30.454Z,14.20
2022-11-07T18:13:00.185Z,14.20
2022-11-07T18:15:28.463Z,14.20
2022-11-07T18:17:56.742Z,14.20
2022-11-07T18:20:26.004Z,14.20
2022-11-07T18:22:54.319Z,14.10
2022-11-07T18:25:22.628Z,14.10
2022-11-07T18:27:50.896Z,14.10
2022-11-07T18:30:20.587Z,14.10
2022-11-07T18:32:48.993Z,14.10
2022-11-07T18:35:17.460Z,14.10
2022-11-07T18:37:45.776Z,14.10
2022-11-07T18:40:14.356Z,14.00
2022-11-07T18:42:46.482Z,14.10
2022-11-07T18:45:15.260Z,14.00
2022-11-07T18:47:44.924Z,14.00
2022-11-07T18:50:13.211Z,13.90
2022-11-07T18:52:41.544Z,14.00
2022-11-07T18:55:11.122Z,13.90
2022-11-07T18:57:39.468Z,13.90
2022-11-07T19:00:13.379Z,13.80
2022-11-07T19:02:42.287Z,13.80
2022-11-07T19:05:12.078Z,13.80
2022-11-07T19:07:42.978Z,13.80
2022-11-07T19:10:11.988Z,13.80
2022-11-07T19:12:40.597Z,13.80
2022-11-07T19:15:11.220Z,13.80
2022-11-07T19:17:39.757Z,13.90
2022-11-07T19:20:09.537Z,13.90
2022-11-07T19:22:39.473Z,14.00
2022-11-07T19:25:08.452Z,14.00
2022-11-07T19:27:37.177Z,13.90
2022-11-07T19:30:08.363Z,13.90
2022-11-07T19:32:36.746Z,14.00
2022-11-07T19:35:05.785Z,14.00
2022-11-07T19:37:34.238Z,14.00
2022-11-07T19:40:03.968Z,14.00
2022-11-07T19:42:32.297Z,14.00
2022-11-07T19:45:01.755Z,14.00
2022-11-07T19:47:31.503Z,14.00
2022-11-07T19:49:59.939Z,13.90
2022-11-07T19:52:28.195Z,14.00
2022-11-07T19:54:56.499Z,13.90
2022-11-07T19:57:26.289Z,13.90
2022-11-07T19:59:54.589Z,13.90
2022-11-07T20:02:44.173Z,13.90
2022-11-07T20:05:11.344Z,13.90
2022-11-07T20:07:40.419Z,13.90
2022-11-07T20:10:10.090Z,13.80
2022-11-07T20:12:39.848Z,13.80
2022-11-07T20:15:10.256Z,13.80
2022-11-07T20:17:38.667Z,13.80
2022-11-07T20:20:13.323Z,13.80
2022-11-07T20:22:46.558Z,13.80
2022-11-07T20:25:15.858Z,13.80
2022-11-07T20:27:45.548Z,13.80
2022-11-07T20:30:15.059Z,13.80
2022-11-07T20:32:46.507Z,13.80
2022-11-07T20:35:14.788Z,13.70
2022-11-07T20:37:43.127Z,13.70
2022-11-07T20:40:14.468Z,13.70
2022-11-07T20:42:44.127Z,13.70
2022-11-07T20:45:13.365Z,13.70
2022-11-07T20:47:41.756Z,13.70
2022-11-07T20:50:10.738Z,13.70
2022-11-07T20:52:38.944Z,13.60
2022-11-07T20:55:08.345Z,13.60
2022-11-07T20:57:36.610Z,13.60
2022-11-07T21:00:08.252Z,13.60
2022-11-07T21:02:36.535Z,13.60
2022-11-07T21:05:17.754Z,13.70
2022-11-07T21:07:48.280Z,13.70
2022-11-07T21:10:16.891Z,13.70
2022-11-07T21:12:45.205Z,13.70
2022-11-07T21:15:14.852Z,13.70
2022-11-07T21:17:43.562Z,13.70
2022-11-07T21:20:12.602Z,13.70
2022-11-07T21:22:41.092Z,13.70
2022-11-07T21:25:10.371Z,13.70
2022-11-07T21:27:38.698Z,13.70
2022-11-07T21:30:09.701Z,13.70
2022-11-07T21:32:39.398Z,13.70
2022-11-07T21:35:08.775Z,13.70
2022-11-07T21:37:37.713Z,13.70
2022-11-07T21:40:07.323Z,13.70
2022-11-07T21:42:35.598Z,13.70
2022-11-07T21:45:03.917Z,13.60
2022-11-07T21:47:32.461Z,13.60
2022-11-07T21:50:17.680Z,13.50
2022-11-07T21:52:51.155Z,13.50
2022-11-07T21:55:19.403Z,13.50
2022-11-07T21:57:47.929Z,13.50
2022-11-07T22:00:17.575Z,13.40
2022-11-07T22:02:45.876Z,13.40
2022-11-07T22:05:15.888Z,13.40
2022-11-07T22:07:44.269Z,13.30
2022-11-07T22:10:12.554Z,13.30
2022-11-07T22:12:40.955Z,13.30
2022-11-07T22:15:10.622Z,13.30
2022-11-07T22:17:39.265Z,13.30
2022-11-07T22:20:09.142Z,13.30
2022-11-07T22:22:38.745Z,13.30
2022-11-07T22:25:08.242Z,13.30
2022-11-07T22:27:37.255Z,13.30
2022-11-07T22:30:07.176Z,13.30
2022-11-07T22:32:35.423Z,13.20
2022-11-07T22:35:08.779Z,13.20
2022-11-07T22:37:38.868Z,13.20
2022-11-07T22:40:09.512Z,13.20
2022-11-07T22:42:38.957Z,13.20
2022-11-07T22:45:09.351Z,13.20
2022-11-07T22:47:37.629Z,13.20
2022-11-07T22:50:07.291Z,13.20
2022-11-07T22:52:35.590Z,13.20
2022-11-07T22:55:05.930Z,13.20
2022-11-07T22:57:34.189Z,13.10
2022-11-07T23:00:17.954Z,13.10
2022-11-07T23:02:48.885Z,13.10
2022-11-07T23:05:17.667Z,13.00
2022-11-07T23:07:45.980Z,13.00
2022-11-07T23:10:15.585Z,13.00
2022-11-07T23:12:43.845Z,13.00
2022-11-07T23:15:12.607Z,13.00
2022-11-07T23:17:41.860Z,13.00
2022-11-07T23:20:32.078Z,12.90
2022-11-07T23:23:01.757Z,12.90
2022-11-07T23:25:31.438Z,12.90
2022-11-07T23:27:59.698Z,12.90
2022-11-07T23:30:30.285Z,12.90
2022-11-07T23:32:58.545Z,12.80
2022-11-07T23:35:26.848Z,12.80
2022-11-07T23:37:55.167Z,12.80
2022-11-07T23:40:23.392Z,12.80
2022-11-07T23:42:53.076Z,12.70
2022-11-07T23:45:38.531Z,12.70
2022-11-07T23:48:24.478Z,12.70
2022-11-07T23:51:04.561Z,12.70
2022-11-07T23:53:51.323Z,12.70
2022-11-07T23:56:20.749Z,12.70
2022-11-07T23:59:08.177Z,12.70
